createdAt,value
2018-06-11T00:00:31.211Z,20.79
2018-06-11T00:02:07.226Z,20.72
2018-06-11T00:03:43.206Z,20.68
2018-06-11T00:05:19.167Z,20.58
2018-06-11T00:06:55.160Z,20.67
2018-06-11T00:08:31.125Z,20.78
2018-06-11T00:10:07.236Z,20.70
2018-06-11T00:11:43.247Z,20.74
2018-06-11T00:13:19.255Z,20.69
2018-06-11T00:14:55.289Z,20.65
2018-06-11T00:16:31.301Z,20.67
2018-06-11T00:18:07.454Z,20.66
2018-06-11T00:19:43.436Z,20.67
2018-06-11T00:21:19.449Z,20.62
2018-06-11T00:22:55.505Z,20.59
2018-06-11T00:24:31.427Z,20.43
2018-06-11T00:26:07.442Z,20.33
2018-06-11T00:27:43.482Z,20.35
2018-06-11T00:29:19.487Z,20.32
2018-06-11T00:30:55.461Z,20.30
2018-06-11T00:32:31.645Z,20.29
2018-06-11T00:34:07.625Z,20.31
2018-06-11T00:35:43.594Z,20.34
2018-06-11T00:37:19.602Z,20.37
2018-06-11T00:38:55.596Z,20.38
2018-06-11T00:40:32.189Z,20.37
2018-06-11T00:42:08.262Z,20.34
2018-06-11T00:43:44.311Z,20.31
2018-06-11T00:45:20.265Z,20.31
2018-06-11T00:46:56.447Z,20.29
2018-06-11T00:48:32.467Z,20.11
2018-06-11T00:50:08.457Z,20.06
2018-06-11T00:51:44.267Z,20.03
2018-06-11T00:53:20.021Z,19.98
2018-06-11T00:54:56.113Z,19.96
2018-06-11T00:56:32.127Z,20.01
2018-06-11T00:58:08.097Z,20.06
2018-06-11T00:59:44.061Z,20.08
2018-06-11T01:01:19.808Z,20.05
2018-06-11T01:02:55.557Z,20.07
2018-06-11T01:04:31.543Z,20.12
2018-06-11T01:06:07.546Z,20.11
2018-06-11T01:07:43.607Z,20.07
2018-06-11T01:09:19.687Z,20.07
2018-06-11T01:10:55.759Z,20.03
2018-06-11T01:12:32.377Z,20.11
2018-06-11T01:14:08.545Z,20.12
2018-06-11T01:15:45.080Z,20.08
2018-06-11T01:17:21.611Z,20.08
2018-06-11T01:18:57.624Z,19.96
2018-06-11T01:20:33.600Z,19.95
2018-06-11T01:22:09.832Z,19.96
2018-06-11T01:23:45.820Z,19.87
2018-06-11T01:25:21.812Z,19.76
2018-06-11T01:26:57.790Z,19.67
2018-06-11T01:28:33.772Z,19.69
2018-06-11T01:30:09.767Z,19.81
2018-06-11T01:31:45.753Z,19.76
2018-06-11T01:33:21.761Z,19.66
2018-06-11T01:34:57.753Z,19.73
2018-06-11T01:36:33.739Z,19.64
2018-06-11T01:38:09.843Z,19.58
2018-06-11T01:39:45.839Z,19.61
2018-06-11T01:41:21.887Z,19.74
2018-06-11T01:42:57.888Z,19.77
2018-06-11T01:44:33.850Z,19.81
2018-06-11T01:46:09.864Z,19.73
2018-06-11T01:47:45.892Z,19.73
2018-06-11T01:49:21.913Z,19.79
2018-06-11T01:50:57.884Z,19.74
2018-06-11T01:52:33.883Z,19.83
2018-06-11T01:54:09.914Z,19.85
2018-06-11T01:55:45.889Z,19.80
2018-06-11T01:57:21.868Z,19.76
2018-06-11T01:58:57.859Z,19.71
2018-06-11T02:00:33.807Z,19.74
2018-06-11T02:02:09.749Z,19.69
2018-06-11T02:03:45.784Z,19.70
2018-06-11T02:05:21.765Z,19.67
2018-06-11T02:06:57.759Z,19.62
2018-06-11T02:08:33.770Z,19.67
2018-06-11T02:10:09.864Z,19.63
2018-06-11T02:11:45.835Z,19.71
2018-06-11T02:13:21.797Z,19.73
2018-06-11T02:14:57.771Z,19.72
2018-06-11T02:16:33.715Z,19.78
2018-06-11T02:18:09.753Z,19.95
2018-06-11T02:19:45.732Z,20.00
2018-06-11T02:21:21.728Z,19.79
2018-06-11T02:22:57.691Z,19.78
2018-06-11T02:24:33.686Z,19.71
2018-06-11T02:26:09.622Z,19.55
2018-06-11T02:27:45.702Z,19.51
2018-06-11T02:29:21.656Z,19.44
2018-06-11T02:30:57.745Z,19.43
2018-06-11T02:32:33.810Z,19.53
2018-06-11T02:34:09.830Z,19.58
2018-06-11T02:35:45.852Z,19.58
2018-06-11T02:37:21.829Z,19.56
2018-06-11T02:38:57.817Z,19.64
2018-06-11T02:40:33.779Z,19.62
2018-06-11T02:42:09.763Z,19.71
2018-06-11T02:43:45.764Z,19.83
2018-06-11T02:45:21.742Z,19.81
2018-06-11T02:46:57.777Z,19.88
2018-06-11T02:48:33.758Z,19.82
2018-06-11T02:50:09.737Z,19.81
2018-06-11T02:51:45.742Z,19.88
2018-06-11T02:53:21.724Z,19.88
2018-06-11T02:54:57.717Z,19.96
2018-06-11T02:56:33.660Z,20.03
2018-06-11T02:58:09.646Z,20.13
2018-06-11T02:59:45.676Z,20.05
2018-06-11T03:01:21.713Z,20.13
2018-06-11T03:02:57.706Z,20.23
2018-06-11T03:04:33.694Z,20.23
2018-06-11T03:06:09.666Z,20.18
2018-06-11T03:07:45.637Z,20.18
2018-06-11T03:09:21.648Z,20.16
2018-06-11T03:10:57.621Z,20.06
2018-06-11T03:12:33.639Z,20.10
2018-06-11T03:14:09.618Z,20.07
2018-06-11T03:15:45.551Z,20.15
2018-06-11T03:17:21.553Z,20.20
2018-06-11T03:18:57.574Z,20.25
2018-06-11T03:20:33.818Z,20.24
2018-06-11T03:22:09.806Z,20.23
2018-06-11T03:23:45.820Z,20.15
2018-06-11T03:25:21.816Z,20.12
2018-06-11T03:26:57.793Z,20.11
2018-06-11T03:28:33.778Z,20.19
2018-06-11T03:30:09.800Z,20.23
2018-06-11T03:31:45.809Z,20.26
2018-06-11T03:33:21.807Z,20.26
2018-06-11T03:34:57.793Z,20.39
2018-06-11T03:36:33.842Z,20.33
2018-06-11T03:38:10.322Z,20.26
2018-06-11T03:39:46.667Z,20.46
2018-06-11T03:41:22.711Z,20.55
2018-06-11T03:42:58.713Z,20.47
2018-06-11T03:44:34.739Z,20.48
2018-06-11T03:46:10.754Z,20.57
2018-06-11T03:47:46.740Z,20.65
2018-06-11T03:49:22.788Z,20.66
2018-06-11T03:50:58.900Z,20.70
2018-06-11T03:52:34.905Z,20.71
2018-06-11T04:00:47.583Z,20.77
2018-06-11T04:02:23.762Z,20.76
2018-06-11T04:03:59.963Z,20.85
2018-06-11T04:05:36.038Z,20.83
2018-06-11T04:07:12.056Z,20.86
2018-06-11T04:08:48.072Z,20.87
2018-06-11T04:10:24.056Z,20.98
2018-06-11T04:12:00.242Z,21.08
2018-06-11T04:15:18.532Z,21.13
2018-06-11T04:16:54.708Z,21.10
2018-06-11T04:18:30.664Z,20.96
2018-06-11T04:20:06.658Z,20.78
2018-06-11T04:21:42.635Z,20.75
2018-06-11T04:23:18.684Z,20.92
2018-06-11T04:24:54.644Z,21.02
2018-06-11T04:26:30.647Z,20.99
2018-06-11T04:28:06.663Z,20.92
2018-06-11T04:29:42.670Z,20.79
2018-06-11T04:31:18.698Z,20.72
2018-06-11T04:32:54.689Z,20.74
2018-06-11T04:34:30.457Z,20.73
2018-06-11T04:36:06.408Z,20.85
2018-06-11T04:37:42.433Z,20.90
2018-06-11T04:39:18.452Z,20.82
2018-06-11T04:40:54.461Z,20.85
2018-06-11T04:42:30.491Z,20.90
2018-06-11T04:44:06.502Z,20.85
2018-06-11T04:45:42.469Z,20.84
2018-06-11T04:47:18.448Z,20.79
2018-06-11T04:48:54.480Z,20.79
2018-06-11T04:50:30.450Z,20.86
2018-06-11T04:52:06.431Z,20.92
2018-06-11T04:53:42.927Z,21.08
2018-06-11T04:55:18.929Z,20.98
2018-06-11T04:56:54.922Z,20.95
2018-06-11T04:58:30.938Z,20.90
2018-06-11T05:00:06.902Z,20.91
2018-06-11T05:01:43.194Z,20.86
2018-06-11T05:03:20.345Z,21.16
2018-06-11T05:04:56.318Z,21.15
2018-06-11T05:06:32.308Z,21.06
2018-06-11T05:08:08.365Z,21.00
2018-06-11T05:09:44.455Z,21.07
2018-06-11T05:11:20.465Z,21.01
2018-06-11T05:13:04.981Z,20.98
2018-06-11T05:14:41.303Z,20.95
2018-06-11T05:16:18.063Z,20.85
2018-06-11T05:17:54.152Z,20.88
2018-06-11T05:19:48.980Z,20.81
2018-06-11T05:21:25.106Z,20.78
2018-06-11T05:23:01.135Z,20.74
2018-06-11T05:26:55.723Z,20.83
2018-06-11T05:28:31.801Z,20.77
2018-06-11T05:30:07.823Z,20.64
2018-06-11T05:31:43.843Z,20.73
2018-06-11T05:33:20.800Z,20.69
2018-06-11T05:34:56.974Z,20.59
2018-06-11T05:36:34.070Z,20.57
2018-06-11T05:38:10.212Z,20.61
2018-06-11T05:39:46.257Z,20.84
2018-06-11T05:41:22.253Z,20.81
2018-06-11T05:42:58.328Z,20.84
2018-06-11T05:44:34.379Z,20.70
2018-06-11T05:46:10.597Z,20.89
2018-06-11T05:47:46.781Z,20.98
2018-06-11T05:49:22.971Z,20.95
2018-06-11T05:50:58.946Z,20.78
2018-06-11T05:52:34.810Z,20.70
2018-06-11T05:54:10.693Z,20.50
2018-06-11T05:55:46.737Z,20.55
2018-06-11T05:57:22.760Z,20.74
2018-06-11T05:58:58.749Z,20.97
2018-06-11T06:00:34.964Z,20.67
2018-06-11T06:02:10.938Z,20.82
2018-06-11T06:03:46.925Z,20.97
2018-06-11T06:05:23.008Z,21.24
2018-06-11T06:06:59.067Z,20.89
2018-06-11T06:08:35.076Z,20.91
2018-06-11T06:10:10.862Z,20.67
2018-06-11T06:11:46.709Z,20.52
2018-06-11T06:13:22.685Z,20.81
2018-06-11T06:14:59.879Z,20.88
2018-06-11T06:16:35.886Z,20.75
2018-06-11T06:18:11.985Z,20.61
2018-06-11T06:19:47.940Z,20.68
2018-06-11T06:21:23.792Z,20.72
2018-06-11T06:22:59.872Z,20.57
2018-06-11T06:24:40.136Z,20.35
2018-06-11T06:26:16.204Z,20.30
2018-06-11T06:27:52.339Z,20.28
2018-06-11T06:29:28.327Z,20.43
2018-06-11T06:31:04.360Z,20.53
2018-06-11T06:32:40.412Z,20.42
2018-06-11T06:34:16.433Z,20.33
2018-06-11T06:35:52.434Z,20.41
2018-06-11T06:37:28.444Z,20.54
2018-06-11T06:39:06.847Z,20.31
2018-06-11T06:40:49.156Z,20.19
2018-06-11T06:42:25.646Z,20.24
2018-06-11T06:44:01.735Z,20.46
2018-06-11T06:45:37.841Z,20.54
2018-06-11T06:47:13.921Z,20.75
2018-06-11T06:48:50.013Z,20.85
2018-06-11T06:50:26.051Z,20.99
2018-06-11T06:52:02.036Z,20.99
2018-06-11T06:53:38.358Z,20.81
2018-06-11T06:55:14.369Z,20.28
2018-06-11T06:56:50.408Z,20.22
2018-06-11T06:58:26.540Z,20.38
2018-06-11T07:00:02.567Z,20.38
2018-06-11T07:01:38.671Z,20.31
2018-06-11T07:03:14.699Z,20.32
2018-06-11T07:04:50.751Z,20.43
2018-06-11T07:06:26.797Z,20.25
2018-06-11T07:08:02.789Z,20.22
2018-06-11T07:09:38.814Z,20.24
2018-06-11T07:11:14.856Z,20.20
2018-06-11T07:12:50.863Z,20.31
2018-06-11T07:14:26.902Z,20.28
2018-06-11T07:16:02.925Z,20.31
2018-06-11T07:17:38.959Z,20.52
2018-06-11T07:19:14.932Z,20.71
2018-06-11T07:20:50.937Z,20.62
2018-06-11T07:22:27.037Z,20.46
2018-06-11T07:24:03.169Z,20.55
2018-06-11T07:30:03.852Z,20.47
2018-06-11T07:31:40.030Z,20.33
2018-06-11T07:33:16.088Z,20.23
2018-06-11T07:34:51.918Z,20.15
2018-06-11T07:36:27.651Z,20.22
2018-06-11T07:38:03.663Z,20.17
2018-06-11T07:39:39.685Z,20.14
2018-06-11T07:41:15.713Z,20.27
2018-06-11T07:42:51.690Z,20.46
2018-06-11T07:44:27.967Z,20.51
2018-06-11T07:46:04.020Z,20.55
2018-06-11T07:47:40.044Z,20.67
2018-06-11T07:49:16.298Z,20.76
2018-06-11T07:50:52.376Z,20.61
2018-06-11T07:52:28.405Z,20.52
2018-06-11T07:54:04.469Z,20.59
2018-06-11T07:55:40.526Z,20.60
2018-06-11T07:57:16.547Z,20.59
2018-06-11T07:58:52.616Z,20.47
2018-06-11T08:00:28.697Z,20.46
2018-06-11T08:02:05.634Z,20.51
2018-06-11T08:03:41.783Z,20.46
2018-06-11T08:05:17.909Z,20.47
2018-06-11T08:06:54.149Z,20.33
2018-06-11T08:08:30.268Z,20.47
2018-06-11T08:10:06.306Z,20.61
2018-06-11T08:11:42.353Z,20.73
2018-06-11T08:13:18.630Z,20.64
2018-06-11T08:14:55.525Z,20.64
2018-06-11T08:16:31.568Z,20.56
2018-06-11T08:18:07.696Z,20.42
2018-06-11T08:19:43.749Z,20.49
2018-06-11T08:21:19.847Z,20.33
2018-06-11T08:22:55.985Z,20.39
2018-06-11T08:24:32.057Z,20.32
2018-06-11T08:26:08.426Z,20.18
2018-06-11T08:27:44.450Z,20.60
2018-06-11T08:29:20.481Z,20.66
2018-06-11T08:30:56.537Z,20.86
2018-06-11T08:32:32.653Z,20.78
2018-06-11T08:34:08.989Z,20.79
2018-06-11T08:35:45.072Z,21.10
2018-06-11T08:37:21.165Z,21.08
2018-06-11T08:38:57.549Z,21.04
2018-06-11T08:40:34.324Z,21.21
2018-06-11T08:42:10.337Z,21.32
2018-06-11T08:43:46.365Z,21.19
2018-06-11T08:45:22.443Z,21.20
2018-06-11T08:46:58.483Z,21.14
2018-06-11T08:48:34.500Z,21.15
2018-06-11T08:50:12.203Z,21.15
2018-06-11T08:51:48.202Z,21.02
2018-06-11T08:53:24.337Z,21.03
2018-06-11T08:55:00.370Z,20.95
2018-06-11T08:56:36.540Z,20.94
2018-06-11T08:58:12.556Z,20.75
2018-06-11T08:59:48.618Z,20.52
2018-06-11T09:01:24.613Z,20.67
2018-06-11T09:03:00.636Z,20.57
2018-06-11T09:04:37.263Z,20.52
2018-06-11T09:06:14.986Z,20.60
2018-06-11T09:07:53.092Z,20.51
2018-06-11T09:09:32.389Z,20.51
2018-06-11T09:11:08.421Z,20.74
2018-06-11T09:12:44.521Z,20.78
2018-06-11T09:14:20.555Z,20.92
2018-06-11T09:15:56.660Z,20.98
2018-06-11T09:17:32.903Z,21.10
2018-06-11T09:19:09.051Z,21.13
2018-06-11T09:20:45.076Z,21.13
2018-06-11T09:22:21.141Z,21.03
2018-06-11T09:23:57.190Z,21.11
2018-06-11T09:25:33.271Z,21.13
2018-06-11T09:27:09.297Z,20.97
2018-06-11T09:28:45.337Z,20.97
2018-06-11T09:30:21.346Z,21.09
2018-06-11T09:31:57.445Z,21.08
2018-06-11T09:33:33.637Z,21.06
2018-06-11T09:35:09.695Z,20.97
2018-06-11T09:36:45.703Z,21.09
2018-06-11T09:38:21.733Z,21.27
2018-06-11T09:39:57.783Z,21.60
2018-06-11T09:41:33.947Z,21.66
2018-06-11T09:43:10.014Z,21.76
2018-06-11T09:44:46.362Z,21.97
2018-06-11T09:46:22.975Z,22.05
2018-06-11T09:47:59.188Z,22.03
2018-06-11T09:49:35.285Z,22.03
2018-06-11T09:51:11.379Z,21.62
2018-06-11T09:52:47.432Z,21.41
2018-06-11T09:54:23.478Z,21.21
2018-06-11T09:55:59.831Z,21.32
2018-06-11T09:57:36.088Z,21.29
2018-06-11T09:59:12.113Z,21.20
2018-06-11T10:00:48.611Z,21.16
2018-06-11T10:02:25.544Z,21.16
2018-06-11T10:04:05.049Z,21.28
2018-06-11T10:05:42.839Z,21.44
2018-06-11T10:07:20.268Z,21.57
2018-06-11T10:08:59.792Z,21.70
2018-06-11T10:10:38.885Z,21.81
2018-06-11T10:12:16.828Z,21.78
2018-06-11T10:13:54.427Z,21.75
2018-06-11T10:15:31.663Z,21.92
2018-06-11T10:17:08.168Z,21.87
2018-06-11T10:18:45.611Z,21.48
2018-06-11T10:20:24.628Z,21.37
2018-06-11T10:22:01.589Z,21.63
2018-06-11T10:23:38.450Z,21.74
2018-06-11T10:25:16.576Z,21.82
2018-06-11T10:26:53.979Z,22.13
2018-06-11T10:28:29.873Z,22.39
2018-06-11T10:30:07.469Z,22.88
2018-06-11T10:31:45.077Z,23.07
2018-06-11T10:33:22.686Z,23.16
2018-06-11T10:34:59.706Z,22.79
2018-06-11T10:36:36.635Z,23.43
2018-06-11T10:38:13.689Z,24.06
2018-06-11T10:39:51.903Z,24.42
2018-06-11T10:41:31.846Z,24.36
2018-06-11T10:43:10.019Z,24.30
2018-06-11T10:44:49.733Z,24.39
2018-06-11T10:46:28.247Z,24.72
2018-06-11T10:48:06.838Z,24.71
2018-06-11T10:49:44.782Z,24.56
2018-06-11T10:51:21.534Z,24.89
2018-06-11T10:53:03.020Z,23.88
2018-06-11T10:54:41.152Z,24.88
2018-06-11T10:56:18.392Z,24.75
2018-06-11T10:58:00.826Z,25.09
2018-06-11T10:59:38.176Z,25.38
2018-06-11T11:01:17.158Z,25.41
2018-06-11T11:02:53.620Z,25.50
2018-06-11T11:04:30.215Z,25.62
2018-06-11T11:06:10.748Z,25.38
2018-06-11T11:07:48.681Z,25.29
2018-06-11T11:09:26.368Z,25.45
2018-06-11T11:11:07.410Z,25.32
2018-06-11T11:12:51.123Z,25.10
2018-06-11T11:14:29.366Z,25.28
2018-06-11T11:16:06.422Z,25.38
2018-06-11T11:17:43.842Z,25.05
2018-06-11T11:19:22.630Z,25.02
2018-06-11T11:20:59.619Z,24.86
2018-06-11T11:22:36.787Z,24.94
2018-06-11T11:24:13.400Z,24.66
2018-06-11T11:25:50.017Z,24.42
2018-06-11T11:27:27.481Z,24.55
2018-06-11T11:29:03.688Z,24.75
2018-06-11T11:30:43.173Z,24.76
2018-06-11T11:32:19.887Z,24.94
2018-06-11T11:33:57.756Z,24.80
2018-06-11T11:35:35.349Z,24.65
2018-06-11T11:37:15.915Z,24.72
2018-06-11T11:38:54.582Z,24.89
2018-06-11T11:40:33.046Z,24.87
2018-06-11T11:42:11.595Z,24.82
2018-06-11T11:43:48.909Z,24.63
2018-06-11T11:45:27.257Z,24.84
2018-06-11T11:47:10.136Z,25.01
2018-06-11T11:48:48.714Z,25.06
2018-06-11T11:50:27.867Z,25.23
2018-06-11T11:52:04.795Z,25.21
2018-06-11T11:53:46.618Z,24.90
2018-06-11T11:55:24.665Z,24.97
2018-06-11T11:57:01.579Z,25.28
2018-06-11T11:58:41.511Z,25.03
2018-06-11T12:00:17.596Z,25.04
2018-06-11T12:01:56.287Z,25.01
2018-06-11T12:03:42.018Z,25.23
2018-06-11T12:05:19.167Z,25.47
2018-06-11T12:06:56.225Z,24.74
2018-06-11T12:08:32.749Z,24.30
2018-06-11T12:10:10.272Z,24.50
2018-06-11T12:11:50.387Z,24.89
2018-06-11T12:13:29.343Z,24.77
2018-06-11T12:15:06.495Z,24.85
2018-06-11T12:16:49.728Z,23.99
2018-06-11T12:18:30.076Z,24.08
2018-06-11T12:20:08.736Z,24.04
2018-06-11T12:21:46.495Z,24.32
2018-06-11T12:23:25.988Z,24.23
2018-06-11T12:25:02.227Z,24.17
2018-06-11T12:26:38.947Z,24.31
2018-06-11T12:28:16.935Z,24.38
2018-06-11T12:29:55.159Z,24.54
2018-06-11T12:31:33.736Z,25.16
2018-06-11T12:33:11.689Z,25.82
2018-06-11T12:34:50.711Z,25.75
2018-06-11T12:36:32.825Z,25.77
2018-06-11T12:38:12.610Z,25.10
2018-06-11T12:39:59.016Z,24.74
2018-06-11T12:41:36.174Z,24.93
2018-06-11T12:43:13.742Z,25.19
2018-06-11T12:44:51.090Z,25.04
2018-06-11T12:46:31.698Z,24.87
2018-06-11T12:48:11.136Z,25.31
2018-06-11T12:49:49.965Z,25.49
2018-06-11T12:51:28.352Z,25.75
2018-06-11T12:53:06.483Z,25.51
2018-06-11T12:54:45.217Z,25.29
2018-06-11T12:56:22.795Z,25.25
2018-06-11T12:58:00.150Z,25.22
2018-06-11T12:59:36.721Z,25.08
2018-06-11T13:01:14.084Z,25.04
2018-06-11T13:02:52.890Z,25.01
2018-06-11T13:04:30.921Z,25.08
2018-06-11T13:06:11.376Z,25.22
2018-06-11T13:07:53.757Z,24.97
2018-06-11T13:09:31.408Z,24.84
2018-06-11T13:11:07.495Z,24.89
2018-06-11T13:12:43.515Z,25.04
2018-06-11T13:14:19.525Z,25.14
2018-06-11T13:15:55.543Z,25.38
2018-06-11T13:17:32.106Z,25.28
2018-06-11T13:19:20.607Z,25.54
2018-06-11T13:20:58.892Z,25.50
2018-06-11T13:22:35.692Z,25.33
2018-06-11T13:24:11.832Z,25.64
2018-06-11T13:25:55.590Z,25.80
2018-06-11T13:27:43.553Z,25.93
2018-06-11T13:29:24.004Z,26.19
2018-06-11T13:31:00.277Z,25.73
2018-06-11T13:32:37.631Z,25.62
2018-06-11T13:34:16.967Z,25.61
2018-06-11T13:35:53.148Z,25.81
2018-06-11T13:37:29.799Z,25.77
2018-06-11T13:39:09.045Z,25.60
2018-06-11T13:40:46.589Z,25.10
2018-06-11T13:42:22.603Z,25.28
2018-06-11T13:43:59.011Z,25.26
2018-06-11T13:45:35.048Z,25.29
2018-06-11T13:47:11.071Z,25.46
2018-06-11T13:48:47.128Z,25.55
2018-06-11T13:50:23.660Z,25.76
2018-06-11T13:51:59.665Z,25.62
2018-06-11T13:53:35.711Z,25.61
2018-06-11T13:55:11.688Z,25.69
2018-06-11T13:56:47.805Z,26.03
2018-06-11T13:58:23.805Z,26.23
2018-06-11T13:59:59.931Z,26.60
2018-06-11T14:01:36.036Z,26.57
2018-06-11T14:03:12.091Z,26.38
2018-06-11T14:04:48.280Z,26.52
2018-06-11T14:06:24.306Z,26.43
2018-06-11T14:08:00.307Z,26.67
2018-06-11T14:09:37.335Z,26.79
2018-06-11T14:11:13.547Z,26.83
2018-06-11T14:12:50.259Z,26.89
2018-06-11T14:14:26.279Z,26.50
2018-06-11T14:16:02.386Z,26.20
2018-06-11T14:17:39.195Z,26.09
2018-06-11T14:19:16.021Z,26.05
2018-06-11T14:20:53.937Z,26.04
2018-06-11T14:22:32.555Z,25.83
2018-06-11T14:24:08.697Z,25.53
2018-06-11T14:25:44.839Z,25.67
2018-06-11T14:27:22.655Z,25.86
2018-06-11T14:28:59.260Z,25.94
2018-06-11T14:30:35.371Z,25.87
2018-06-11T14:32:11.751Z,25.75
2018-06-11T14:33:47.865Z,25.71
2018-06-11T14:35:24.339Z,25.90
2018-06-11T14:37:03.447Z,25.87
2018-06-11T14:38:39.663Z,26.10
2018-06-11T14:40:15.913Z,26.29
2018-06-11T14:41:52.256Z,26.61
2018-06-11T14:43:28.749Z,26.44
2018-06-11T14:45:05.376Z,26.47
2018-06-11T14:46:41.774Z,26.51
2018-06-11T14:48:17.816Z,26.31
2018-06-11T14:49:53.786Z,26.27
2018-06-11T14:51:29.832Z,26.21
2018-06-11T14:53:05.709Z,26.07
2018-06-11T14:54:45.360Z,26.09
2018-06-11T14:56:21.475Z,26.09
2018-06-11T14:57:57.647Z,26.53
2018-06-11T14:59:33.691Z,26.74
2018-06-11T15:01:09.691Z,26.87
2018-06-11T15:02:46.164Z,26.41
2018-06-11T15:08:45.589Z,26.18
2018-06-11T15:10:22.281Z,26.24
2018-06-11T15:11:58.379Z,26.27
2018-06-11T15:15:46.420Z,26.42
2018-06-11T15:17:23.167Z,26.36
2018-06-11T15:18:59.207Z,26.73
2018-06-11T15:20:35.240Z,26.92
2018-06-11T15:22:11.241Z,27.08
2018-06-11T15:23:47.349Z,26.99
2018-06-11T15:25:25.496Z,26.84
2018-06-11T15:27:02.779Z,27.13
2018-06-11T15:28:38.975Z,27.22
2018-06-11T15:30:15.048Z,26.73
2018-06-11T15:31:51.108Z,26.83
2018-06-11T15:33:27.124Z,26.46
2018-06-11T15:35:03.174Z,26.42
2018-06-11T15:36:39.247Z,25.91
2018-06-11T15:38:21.968Z,26.02
2018-06-11T15:39:58.042Z,26.03
2018-06-11T15:41:34.080Z,26.02
2018-06-11T15:43:10.149Z,25.86
2018-06-11T15:44:46.184Z,25.74
2018-06-11T15:46:22.665Z,25.67
2018-06-11T15:47:58.625Z,25.71
2018-06-11T15:49:34.606Z,25.71
2018-06-11T15:51:10.751Z,25.68
2018-06-11T15:52:46.757Z,25.71
2018-06-11T15:54:22.829Z,25.84
2018-06-11T15:55:58.842Z,26.12
2018-06-11T15:57:35.372Z,26.01
2018-06-11T15:59:11.369Z,26.10
2018-06-11T16:00:47.395Z,25.83
2018-06-11T16:02:23.346Z,25.62
2018-06-11T16:04:00.283Z,25.75
2018-06-11T16:05:36.481Z,25.89
2018-06-11T16:07:12.781Z,25.72
2018-06-11T16:08:48.889Z,25.70
2018-06-11T16:10:25.829Z,25.81
2018-06-11T16:12:01.870Z,25.95
2018-06-11T16:13:38.068Z,25.76
2018-06-11T16:15:15.819Z,25.91
2018-06-11T16:16:53.615Z,25.90
2018-06-11T16:18:30.145Z,26.06
2018-06-11T16:20:08.581Z,26.24
2018-06-11T16:21:45.859Z,26.26
2018-06-11T16:23:23.070Z,26.12
2018-06-11T16:24:59.319Z,25.54
2018-06-11T16:26:35.697Z,25.56
2018-06-11T16:28:12.315Z,25.50
2018-06-11T16:29:49.058Z,25.59
2018-06-11T16:31:26.278Z,25.34
2018-06-11T16:33:04.883Z,25.26
2018-06-11T16:34:41.037Z,25.25
2018-06-11T16:36:20.074Z,25.32
2018-06-11T16:37:56.083Z,25.42
2018-06-11T16:39:32.811Z,25.17
2018-06-11T16:41:09.152Z,25.21
2018-06-11T16:42:45.728Z,25.06
2018-06-11T16:44:21.764Z,25.03
2018-06-11T16:45:57.877Z,25.08
2018-06-11T16:47:33.950Z,25.15
2018-06-11T16:49:10.632Z,25.15
2018-06-11T16:50:46.721Z,24.90
2018-06-11T16:52:22.862Z,24.79
2018-06-11T16:53:59.139Z,24.84
2018-06-11T16:55:35.188Z,24.93
2018-06-11T16:57:13.468Z,25.07
2018-06-11T16:58:49.562Z,24.85
2018-06-11T17:00:26.068Z,24.67
2018-06-11T17:02:02.954Z,24.57
2018-06-11T17:03:45.094Z,24.66
2018-06-11T17:05:27.430Z,24.78
2018-06-11T17:07:03.613Z,24.59
2018-06-11T17:08:39.842Z,24.57
2018-06-11T17:10:16.954Z,24.70
2018-06-11T17:11:59.945Z,24.58
2018-06-11T17:13:40.966Z,24.76
2018-06-11T17:15:18.348Z,24.68
2018-06-11T17:16:54.448Z,24.54
2018-06-11T17:18:30.520Z,24.75
2018-06-11T17:20:07.878Z,24.89
2018-06-11T17:21:44.879Z,24.95
2018-06-11T17:23:21.063Z,24.87
2018-06-11T17:24:57.720Z,25.00
2018-06-11T17:26:34.936Z,24.93
2018-06-11T17:28:12.937Z,25.04
2018-06-11T17:29:50.231Z,24.88
2018-06-11T17:31:40.154Z,24.87
2018-06-11T17:33:16.977Z,24.76
2018-06-11T17:34:53.263Z,24.66
2018-06-11T17:36:29.453Z,24.67
2018-06-11T17:38:05.530Z,24.64
2018-06-11T17:39:41.605Z,24.60
2018-06-11T17:41:32.288Z,24.66
2018-06-11T17:43:08.453Z,24.50
2018-06-11T17:44:44.465Z,24.49
2018-06-11T17:46:20.475Z,24.32
2018-06-11T17:47:56.638Z,24.40
2018-06-11T17:49:32.954Z,24.44
2018-06-11T17:51:08.737Z,24.46
2018-06-11T17:52:44.593Z,24.55
2018-06-11T17:54:20.754Z,24.60
2018-06-11T17:55:56.825Z,24.58
2018-06-11T17:57:32.831Z,24.58
2018-06-11T17:59:10.230Z,24.52
2018-06-11T18:00:49.707Z,24.51
2018-06-11T18:02:26.427Z,24.47
2018-06-11T18:04:03.381Z,24.36
2018-06-11T18:05:40.871Z,24.34
2018-06-11T18:07:16.913Z,24.24
2018-06-11T18:08:55.342Z,24.31
2018-06-11T18:10:31.443Z,24.38
2018-06-11T18:12:11.636Z,24.29
2018-06-11T18:13:48.696Z,24.25
2018-06-11T18:15:26.039Z,24.22
2018-06-11T18:17:02.660Z,24.15
2018-06-11T18:18:39.120Z,24.10
2018-06-11T18:20:15.232Z,24.00
2018-06-11T18:21:53.031Z,24.06
2018-06-11T18:23:29.313Z,23.96
2018-06-11T18:25:07.425Z,23.86
2018-06-11T18:26:44.930Z,23.80
2018-06-11T18:28:22.035Z,23.75
2018-06-11T18:32:07.861Z,23.58
2018-06-11T18:33:46.108Z,23.56
2018-06-11T18:35:22.459Z,23.52
2018-06-11T18:36:58.721Z,23.51
2018-06-11T18:38:34.966Z,23.42
2018-06-11T18:40:11.282Z,23.38
2018-06-11T18:41:48.599Z,23.29
2018-06-11T18:43:27.026Z,23.25
2018-06-11T18:45:03.751Z,23.25
2018-06-11T18:46:40.375Z,23.26
2018-06-11T18:48:17.691Z,23.20
2018-06-11T18:49:53.819Z,23.17
2018-06-11T18:51:30.881Z,23.21
2018-06-11T18:53:06.965Z,23.24
2018-06-11T18:54:43.014Z,23.22
2018-06-11T18:56:41.830Z,23.25
2018-06-11T18:58:17.902Z,23.24
2018-06-11T18:59:54.216Z,23.15
2018-06-11T19:01:30.269Z,23.04
2018-06-11T19:03:06.656Z,22.95
2018-06-11T19:04:43.002Z,22.97
2018-06-11T19:06:19.186Z,22.90
2018-06-11T19:14:35.220Z,22.83
2018-06-11T19:16:11.920Z,22.88
2018-06-11T19:17:48.333Z,22.81
2018-06-11T19:19:25.674Z,22.72
2018-06-11T19:21:02.903Z,22.72
2018-06-11T19:22:39.913Z,22.68
2018-06-11T19:24:16.025Z,22.65
2018-06-11T19:25:52.781Z,22.68
2018-06-11T19:27:29.112Z,22.69
2018-06-11T19:29:04.978Z,22.72
2018-06-11T19:30:40.834Z,22.76
2018-06-11T19:32:17.489Z,22.66
2018-06-11T19:33:53.509Z,22.65
2018-06-11T19:35:29.975Z,22.61
2018-06-11T19:37:05.853Z,22.74
2018-06-11T19:38:41.892Z,22.76
2018-06-11T19:40:17.985Z,22.72
2018-06-11T19:41:54.065Z,22.70
2018-06-11T19:43:30.973Z,22.71
2018-06-11T19:45:07.206Z,22.69
2018-06-11T19:46:43.255Z,22.70
2018-06-11T19:48:19.106Z,22.69
2018-06-11T19:49:55.194Z,22.65
2018-06-11T19:51:31.274Z,22.62
2018-06-11T19:53:13.586Z,22.54
2018-06-11T19:54:49.677Z,22.63
2018-06-11T19:56:27.716Z,22.57
2018-06-11T19:58:03.855Z,22.49
2018-06-11T19:59:40.541Z,22.46
2018-06-11T20:01:16.660Z,22.47
2018-06-11T20:02:52.760Z,22.44
2018-06-11T20:04:29.874Z,22.38
2018-06-11T20:06:06.402Z,22.31
2018-06-11T20:07:43.509Z,22.37
2018-06-11T20:09:20.055Z,22.37
2018-06-11T20:10:56.379Z,22.40
2018-06-11T20:12:32.750Z,22.45
2018-06-11T20:14:08.790Z,22.45
2018-06-11T20:15:44.853Z,22.34
2018-06-11T20:19:34.607Z,22.33
2018-06-11T20:21:14.048Z,22.22
2018-06-11T20:22:50.124Z,22.16
2018-06-11T20:24:26.251Z,22.24
2018-06-11T20:26:02.581Z,22.13
2018-06-11T20:27:38.316Z,22.28
2018-06-11T20:33:39.622Z,22.07
2018-06-11T20:35:15.777Z,22.03
2018-06-11T20:36:53.083Z,22.07
2018-06-11T20:38:29.156Z,22.09
2018-06-11T20:40:06.207Z,22.07
2018-06-11T20:41:43.074Z,22.07
2018-06-11T20:43:19.976Z,22.00
2018-06-11T20:44:56.284Z,22.03
2018-06-11T20:46:32.561Z,21.98
2018-06-11T20:48:09.361Z,21.95
2018-06-11T20:49:45.344Z,21.98
2018-06-11T20:51:21.733Z,21.93
2018-06-11T20:52:57.910Z,21.93
2018-06-11T20:54:33.921Z,21.85
2018-06-11T20:56:09.933Z,21.83
2018-06-11T20:57:45.987Z,21.81
2018-06-11T20:59:22.026Z,21.76
2018-06-11T21:00:58.635Z,21.73
2018-06-11T21:02:34.743Z,21.66
2018-06-11T21:04:11.467Z,21.59
2018-06-11T21:05:48.780Z,21.59
2018-06-11T21:07:24.881Z,21.65
2018-06-11T21:09:00.959Z,21.69
2018-06-11T21:10:37.008Z,21.66
2018-06-11T21:12:13.078Z,21.69
2018-06-11T21:13:49.074Z,21.61
2018-06-11T21:15:25.092Z,21.68
2018-06-11T21:17:01.137Z,21.69
2018-06-11T21:18:37.554Z,21.56
2018-06-11T21:20:13.725Z,21.56
2018-06-11T21:21:49.752Z,21.58
2018-06-11T21:23:25.779Z,21.58